Time;durP1;ratioP1;P1;durP2;ratioP2;P2;SDS_P1;SDS_P2;PMS_P1;PMS_P2;Temp;Humidity;BMP_temperature;BMP_pressure;BME280_temperature;BME280_humidity;BME280_pressure;Samples;Min_cycle;Max_cycle;Signal;HPM_P1;HPM_P2
2021/07/07 00:00:48;;;;;;;8.43;3.00;;;17.40;90.70;;;;;;5017563;28;20075;-64
2021/07/07 00:03:14;;;;;;;9.82;3.10;;;17.40;90.60;;;;;;5018208;28;20060;-64
2021/07/07 00:05:39;;;;;;;8.02;3.17;;;17.30;90.80;;;;;;5023956;28;20042;-65
2021/07/07 00:08:05;;;;;;;6.70;2.85;;;17.30;90.80;;;;;;5012622;28;20025;-65
2021/07/07 00:10:34;;;;;;;8.00;3.42;;;17.30;90.70;;;;;;5016301;28;20033;-64
2021/07/07 00:13:00;;;;;;;6.32;2.97;;;17.20;90.90;;;;;;5021600;28;20391;-64
2021/07/07 00:15:27;;;;;;;13.40;3.50;;;17.20;90.80;;;;;;5007543;28;20086;-65
2021/07/07 00:17:53;;;;;;;9.90;3.47;;;17.20;91.10;;;;;;5013639;28;20484;-64
2021/07/07 00:20:20;;;;;;;9.18;3.17;;;17.20;91.10;;;;;;5021775;28;20029;-64
2021/07/07 00:22:45;;;;;;;6.68;3.10;;;17.20;91.10;;;;;;5010603;28;20140;-65
2021/07/07 00:25:11;;;;;;;8.80;3.22;;;17.10;91.20;;;;;;5018736;28;20476;-64
2021/07/07 00:27:37;;;;;;;6.80;2.90;;;17.10;91.20;;;;;;5020657;28;20091;-65
2021/07/07 00:30:05;;;;;;;11.25;3.15;;;17.10;91.60;;;;;;5011571;28;20428;-64
2021/07/07 00:32:30;;;;;;;6.55;2.80;;;17.00;91.00;;;;;;5016237;28;20104;-64
2021/07/07 00:34:56;;;;;;;10.40;2.95;;;17.00;91.40;;;;;;5021448;28;20113;-64
2021/07/07 00:37:21;;;;;;;10.13;3.45;;;17.00;91.70;;;;;;5014932;28;20067;-64
2021/07/07 00:39:47;;;;;;;6.47;2.70;;;16.90;91.40;;;;;;5029530;28;20049;-64
2021/07/07 00:42:12;;;;;;;6.95;3.17;;;16.90;91.50;;;;;;5017274;28;20633;-65
2021/07/07 00:44:38;;;;;;;8.52;2.88;;;16.80;91.80;;;;;;5015567;28;20488;-64
2021/07/07 00:47:04;;;;;;;6.72;2.70;;;16.90;91.40;;;;;;5017687;28;20033;-64
2021/07/07 00:49:30;;;;;;;10.57;2.80;;;16.80;91.60;;;;;;5029723;28;20510;-64
2021/07/07 00:51:56;;;;;;;10.43;2.72;;;16.80;91.70;;;;;;5017639;28;20033;-64
2021/07/07 00:54:25;;;;;;;5.28;2.60;;;16.80;91.90;;;;;;5011233;28;20028;-64
2021/07/07 00:56:51;;;;;;;7.25;2.60;;;16.80;91.90;;;;;;5010482;28;20030;-64
2021/07/07 00:59:20;;;;;;;10.98;3.15;;;16.70;91.50;;;;;;5013182;28;20037;-64
2021/07/07 01:01:45;;;;;;;9.65;2.47;;;16.70;91.70;;;;;;5011872;28;20100;-64
2021/07/07 01:04:11;;;;;;;8.27;3.20;;;16.80;91.80;;;;;;5016555;28;20033;-64
2021/07/07 01:06:36;;;;;;;7.97;2.85;;;16.80;91.60;;;;;;5018982;28;20240;-64
2021/07/07 01:09:02;;;;;;;9.43;3.10;;;16.70;91.50;;;;;;5018392;28;20385;-64
2021/07/07 01:11:30;;;;;;;12.15;3.75;;;16.80;91.60;;;;;;5016238;28;20766;-64
2021/07/07 01:13:56;;;;;;;11.40;2.80;;;16.70;91.30;;;;;;5010964;28;20026;-64
2021/07/07 01:16:21;;;;;;;10.88;3.15;;;16.70;90.90;;;;;;5010319;28;20072;-64
2021/07/07 01:18:47;;;;;;;6.38;2.53;;;16.70;91.10;;;;;;5010268;28;20022;-64
2021/07/07 01:21:12;;;;;;;10.50;3.33;;;16.70;91.40;;;;;;5019368;28;20029;-64
2021/07/07 01:23:38;;;;;;;11.23;3.30;;;16.70;91.10;;;;;;5012652;28;20120;-64
2021/07/07 01:26:03;;;;;;;8.38;3.20;;;16.70;91.30;;;;;;5010666;28;20062;-64
2021/07/07 01:28:31;;;;;;;8.23;4.38;;;16.80;91.00;;;;;;5026225;28;20025;-64
2021/07/07 01:30:56;;;;;;;12.07;4.30;;;16.70;91.10;;;;;;5020732;28;20508;-63
2021/07/07 01:33:22;;;;;;;9.90;3.20;;;16.60;91.30;;;;;;5011782;28;20109;-64
2021/07/07 01:35:48;;;;;;;10.38;3.63;;;16.60;91.30;;;;;;5010987;28;20053;-63
2021/07/07 01:38:13;;;;;;;13.75;3.85;;;16.70;91.50;;;;;;5025332;28;20030;-64
2021/07/07 01:40:39;;;;;;;11.30;4.82;;;16.60;91.20;;;;;;5019949;28;20467;-63
2021/07/07 01:43:05;;;;;;;9.82;4.57;;;16.60;91.30;;;;;;5008574;28;20740;-64
2021/07/07 01:45:30;;;;;;;8.20;4.00;;;16.60;91.70;;;;;;5008508;28;20558;-64
2021/07/07 01:47:56;;;;;;;11.10;4.22;;;16.60;91.60;;;;;;5024635;28;20104;-65
2021/07/07 01:50:22;;;;;;;11.60;3.60;;;16.60;91.50;;;;;;5024427;28;20022;-64
2021/07/07 01:52:49;;;;;;;10.50;4.07;;;16.50;91.50;;;;;;5023352;28;20036;-64
2021/07/07 01:55:15;;;;;;;9.20;3.60;;;16.50;92.10;;;;;;5028397;28;20041;-64
2021/07/07 01:57:45;;;;;;;9.65;3.63;;;16.50;91.80;;;;;;5012031;28;20037;-64
2021/07/07 02:00:18;;;;;;;12.70;3.72;;;16.50;91.80;;;;;;5025029;28;20026;-63
2021/07/07 02:02:45;;;;;;;10.95;3.50;;;16.50;92.10;;;;;;5018682;28;20029;-65
2021/07/07 02:05:11;;;;;;;10.38;3.95;;;16.40;91.90;;;;;;5026991;28;20079;-64
2021/07/07 02:07:36;;;;;;;8.02;3.17;;;16.50;92.10;;;;;;5024454;28;20040;-64
2021/07/07 02:10:04;;;;;;;5.88;3.33;;;16.40;92.00;;;;;;5025779;28;20432;-64
2021/07/07 02:12:30;;;;;;;8.30;3.30;;;16.40;92.10;;;;;;5011698;28;20033;-64
2021/07/07 02:14:55;;;;;;;10.05;3.22;;;16.40;92.10;;;;;;5007710;28;20389;-64
2021/07/07 02:17:21;;;;;;;11.63;3.40;;;16.40;92.40;;;;;;5007237;28;20515;-64
2021/07/07 02:19:46;;;;;;;8.18;4.05;;;16.40;92.30;;;;;;5007520;28;20057;-64
2021/07/07 02:22:12;;;;;;;10.27;3.40;;;16.40;91.80;;;;;;5013627;28;20532;-64
2021/07/07 02:24:37;;;;;;;9.73;3.60;;;16.40;92.50;;;;;;5014310;28;20030;-64
2021/07/07 02:27:03;;;;;;;9.10;3.47;;;16.30;92.30;;;;;;5027108;28;20087;-64
2021/07/07 02:29:29;;;;;;;8.07;3.55;;;16.30;92.20;;;;;;5028206;28;20025;-64
2021/07/07 02:31:54;;;;;;;9.00;3.55;;;16.30;92.20;;;;;;5019322;28;20072;-64
2021/07/07 02:34:20;;;;;;;7.00;3.80;;;16.30;92.50;;;;;;5019039;28;20044;-64
2021/07/07 02:36:45;;;;;;;9.02;3.70;;;16.30;92.70;;;;;;5027934;28;20029;-64
2021/07/07 02:39:11;;;;;;;11.02;3.80;;;16.30;92.60;;;;;;5023572;28;20029;-65
2021/07/07 02:41:37;;;;;;;9.80;4.00;;;16.30;92.50;;;;;;5015981;28;20120;-64
2021/07/07 02:44:02;;;;;;;13.27;3.70;;;16.20;92.60;;;;;;5010901;28;20056;-64
2021/07/07 02:46:28;;;;;;;8.43;3.78;;;16.20;92.70;;;;;;5011680;28;20329;-64
2021/07/07 02:48:53;;;;;;;10.55;4.60;;;16.20;92.70;;;;;;5010151;28;20026;-64
2021/07/07 02:51:19;;;;;;;13.00;4.68;;;16.20;92.70;;;;;;5025491;28;20586;-65
2021/07/07 02:53:44;;;;;;;11.20;4.50;;;16.20;92.60;;;;;;5025961;28;20075;-65
2021/07/07 02:56:10;;;;;;;15.93;4.32;;;16.60;92.80;;;;;;5013488;28;20026;-64
2021/07/07 02:58:35;;;;;;;12.93;4.18;;;16.10;92.60;;;;;;5008446;28;20030;-63
2021/07/07 03:01:02;;;;;;;10.63;3.90;;;16.20;92.70;;;;;;5014002;28;20678;-64
2021/07/07 03:03:28;;;;;;;12.50;3.80;;;16.20;92.50;;;;;;5020190;28;20033;-64
2021/07/07 03:05:58;;;;;;;12.80;3.25;;;16.20;92.00;;;;;;5008950;28;20046;-64
2021/07/07 03:08:28;;;;;;;12.85;4.53;;;16.20;92.50;;;;;;5007102;28;20515;-64
2021/07/07 03:10:54;;;;;;;10.35;4.18;;;16.20;92.40;;;;;;5022008;28;20033;-64
2021/07/07 03:13:19;;;;;;;13.43;3.65;;;16.20;92.10;;;;;;5023707;28;20029;-64
2021/07/07 03:15:45;;;;;;;11.38;4.15;;;16.10;92.20;;;;;;5011134;28;20049;-64
2021/07/07 03:18:11;;;;;;;9.23;3.33;;;16.20;92.10;;;;;;5018710;28;20116;-64
2021/07/07 03:20:37;;;;;;;9.82;4.32;;;16.10;91.90;;;;;;5007606;28;20109;-64
2021/07/07 03:23:03;;;;;;;11.38;3.97;;;16.10;92.40;;;;;;5008431;28;20443;-64
2021/07/07 03:25:29;;;;;;;17.73;3.80;;;16.20;92.30;;;;;;5014487;28;20371;-64
2021/07/07 03:27:54;;;;;;;11.63;3.83;;;16.20;91.90;;;;;;5028270;28;20492;-64
2021/07/07 03:30:20;;;;;;;8.15;3.63;;;16.20;92.00;;;;;;5012280;28;20481;-64
2021/07/07 03:32:46;;;;;;;9.80;3.50;;;16.10;92.10;;;;;;5019343;28;20092;-64
2021/07/07 03:35:12;;;;;;;11.80;4.00;;;16.10;92.40;;;;;;5012975;28;20030;-64
2021/07/07 03:37:37;;;;;;;10.77;3.35;;;16.10;92.30;;;;;;5024708;28;20496;-64
2021/07/07 03:40:04;;;;;;;12.38;3.17;;;16.20;92.00;;;;;;5026104;28;20555;-64
2021/07/07 03:42:29;;;;;;;7.72;3.40;;;16.20;91.60;;;;;;5011628;28;20677;-64
2021/07/07 03:44:55;;;;;;;9.35;3.53;;;16.20;92.20;;;;;;5006711;28;20065;-65
2021/07/07 03:47:21;;;;;;;10.80;3.38;;;16.20;91.90;;;;;;5007505;28;20056;-64
2021/07/07 03:49:46;;;;;;;9.75;3.88;;;16.10;92.20;;;;;;5011529;28;20234;-64
2021/07/07 03:52:12;;;;;;;13.68;3.53;;;16.10;92.00;;;;;;5027632;28;20029;-65
2021/07/07 03:54:37;;;;;;;9.48;3.78;;;16.20;92.10;;;;;;5020816;28;20025;-64
2021/07/07 03:57:06;;;;;;;8.98;3.72;;;16.20;92.40;;;;;;5014622;28;20052;-65
2021/07/07 03:59:31;;;;;;;14.23;3.70;;;16.10;91.80;;;;;;5018660;28;20022;-64
2021/07/07 04:01:57;;;;;;;8.60;3.50;;;16.10;92.30;;;;;;5014783;28;20388;-64
2021/07/07 04:04:22;;;;;;;9.52;3.22;;;16.10;92.40;;;;;;5018754;28;20022;-64
2021/07/07 04:06:48;;;;;;;13.13;3.78;;;16.20;92.40;;;;;;5015838;28;20493;-64
2021/07/07 04:09:13;;;;;;;13.32;3.15;;;16.20;92.40;;;;;;5012250;28;20116;-64
2021/07/07 04:11:40;;;;;;;6.80;3.20;;;16.20;91.80;;;;;;5016066;28;20029;-64
2021/07/07 04:14:07;;;;;;;9.75;3.10;;;16.20;92.10;;;;;;5022168;28;20102;-64
2021/07/07 04:16:33;;;;;;;13.00;3.85;;;16.30;92.40;;;;;;5009387;28;20048;-64
2021/07/07 04:18:58;;;;;;;14.95;3.92;;;16.40;92.30;;;;;;5007692;28;20025;-64
2021/07/07 04:21:25;;;;;;;7.28;3.08;;;16.50;92.10;;;;;;5009125;28;20476;-65
2021/07/07 04:23:51;;;;;;;11.25;3.10;;;16.60;91.70;;;;;;5025684;28;20408;-64
2021/07/07 04:26:16;;;;;;;8.52;3.72;;;16.60;91.60;;;;;;5022260;28;20501;-65
2021/07/07 04:28:42;;;;;;;13.93;3.65;;;16.70;91.60;;;;;;5014111;28;20033;-64
2021/07/07 04:31:08;;;;;;;15.38;4.95;;;16.70;91.20;;;;;;5016562;28;20116;-64
2021/07/07 04:33:33;;;;;;;12.23;3.83;;;16.70;91.50;;;;;;5018211;28;20029;-64
2021/07/07 04:35:59;;;;;;;8.52;2.95;;;16.70;91.10;;;;;;5008184;28;20136;-64
2021/07/07 04:38:24;;;;;;;9.68;3.50;;;16.70;91.90;;;;;;5008831;28;20104;-64
2021/07/07 04:40:50;;;;;;;9.88;3.33;;;16.70;91.30;;;;;;5007975;28;20026;-64
2021/07/07 04:43:15;;;;;;;11.75;3.58;;;16.70;91.40;;;;;;5007845;28;20018;-64
2021/07/07 04:45:41;;;;;;;11.63;4.10;;;16.80;91.40;;;;;;5019604;28;20382;-65
2021/07/07 04:48:06;;;;;;;13.27;3.92;;;16.80;91.20;;;;;;5007901;28;20121;-64
2021/07/07 04:50:32;;;;;;;9.85;3.55;;;16.90;91.20;;;;;;5011941;28;20112;-64
2021/07/07 04:52:57;;;;;;;9.43;2.92;;;17.10;91.10;;;;;;5020339;28;20098;-64
2021/07/07 04:55:23;;;;;;;9.18;3.03;;;17.20;91.10;;;;;;5009119;28;20064;-64
2021/07/07 04:57:48;;;;;;;12.55;3.50;;;17.20;91.00;;;;;;5007151;28;20057;-64
2021/07/07 05:00:20;;;;;;;17.17;3.83;;;17.10;90.70;;;;;;5020632;28;20071;-64
2021/07/07 05:02:46;;;;;;;9.00;3.08;;;17.10;91.30;;;;;;5016640;28;20492;-64
2021/07/07 05:05:13;;;;;;;10.07;3.33;;;17.20;91.30;;;;;;5011537;28;20057;-64
2021/07/07 05:07:38;;;;;;;8.68;3.10;;;17.30;91.10;;;;;;5017437;28;20608;-64
2021/07/07 05:10:04;;;;;;;11.90;3.35;;;17.30;90.70;;;;;;5019626;28;20044;-64
2021/07/07 05:12:30;;;;;;;9.95;3.72;;;17.30;91.00;;;;;;5018184;28;20022;-64
2021/07/07 05:14:56;;;;;;;10.10;2.80;;;17.30;90.80;;;;;;5021631;28;20040;-64
2021/07/07 05:17:22;;;;;;;7.93;3.30;;;17.20;90.80;;;;;;5019451;28;20159;-64
2021/07/07 05:19:48;;;;;;;11.07;3.45;;;17.30;90.70;;;;;;5017283;28;20026;-64
2021/07/07 05:22:13;;;;;;;12.20;3.38;;;17.40;91.10;;;;;;5011127;28;20531;-64
2021/07/07 05:24:39;;;;;;;7.32;3.25;;;17.40;90.70;;;;;;5016403;28;20198;-64
2021/07/07 05:27:04;;;;;;;9.32;3.28;;;18.00;90.70;;;;;;5011935;28;20038;-64
2021/07/07 05:29:30;;;;;;;13.07;3.30;;;17.50;90.90;;;;;;5014164;28;20524;-65
2021/07/07 05:31:58;;;;;;;15.45;4.00;;;17.70;90.70;;;;;;5021094;28;20075;-64
2021/07/07 05:34:23;;;;;;;12.77;3.95;;;17.80;90.30;;;;;;5009576;28;20030;-64
2021/07/07 05:36:49;;;;;;;13.23;3.45;;;17.90;89.80;;;;;;5009994;28;20235;-65
2021/07/07 05:39:14;;;;;;;6.35;2.75;;;18.10;90.00;;;;;;5013396;28;20063;-64
2021/07/07 05:41:40;;;;;;;39.75;28.13;;;18.20;89.60;;;;;;5015731;28;20088;-64
2021/07/07 05:44:06;;;;;;;67.82;53.45;;;18.40;88.60;;;;;;5022894;28;20029;-64
2021/07/07 05:46:31;;;;;;;30.30;22.40;;;18.50;88.70;;;;;;5016763;28;20447;-64
2021/07/07 05:48:57;;;;;;;24.75;16.38;;;18.60;88.10;;;;;;5016438;28;20407;-64
2021/07/07 05:51:22;;;;;;;11.90;5.82;;;18.70;87.60;;;;;;5024207;28;20428;-64
2021/07/07 05:53:48;;;;;;;11.70;6.40;;;18.80;87.40;;;;;;5014486;28;20104;-64
2021/07/07 05:56:16;;;;;;;12.32;3.95;;;18.90;87.80;;;;;;5018065;28;20136;-65
2021/07/07 05:58:41;;;;;;;12.40;4.68;;;18.90;86.80;;;;;;5014607;28;20038;-63
2021/07/07 06:01:07;;;;;;;8.80;3.40;;;18.80;86.60;;;;;;5011842;28;20498;-65
2021/07/07 06:03:32;;;;;;;23.75;15.88;;;19.00;86.60;;;;;;5014691;28;20038;-63
2021/07/07 06:05:58;;;;;;;36.17;25.17;;;19.10;86.70;;;;;;5012858;28;20049;-64
2021/07/07 06:08:24;;;;;;;14.25;4.15;;;19.30;85.60;;;;;;5017812;28;20503;-64
2021/07/07 06:10:50;;;;;;;31.60;22.38;;;19.20;84.90;;;;;;5027847;28;20029;-64
2021/07/07 06:13:15;;;;;;;9.68;4.00;;;19.30;86.00;;;;;;5027350;28;20075;-64
2021/07/07 06:15:41;;;;;;;14.30;5.90;;;19.20;84.60;;;;;;5000183;28;20344;-65
2021/07/07 06:18:06;;;;;;;19.05;12.23;;;19.30;85.90;;;;;;5015294;28;20022;-64
2021/07/07 06:20:32;;;;;;;7.40;3.03;;;19.40;87.00;;;;;;5025117;28;20034;-64
2021/07/07 06:22:58;;;;;;;15.80;10.63;;;19.40;84.30;;;;;;5028244;28;20033;-64
2021/07/07 06:25:24;;;;;;;11.82;4.47;;;19.50;85.10;;;;;;5026073;28;20060;-64
2021/07/07 06:27:49;;;;;;;16.27;4.53;;;19.40;84.70;;;;;;5011386;28;20306;-65
2021/07/07 06:30:24;;;;;;;8.88;2.83;;;19.50;85.50;;;;;;5014169;28;20083;-63
2021/07/07 06:32:50;;;;;;;14.25;6.88;;;19.60;85.80;;;;;;5026522;28;20053;-63
2021/07/07 06:35:15;;;;;;;7.22;3.45;;;19.60;86.90;;;;;;5026644;28;20448;-63
2021/07/07 06:37:41;;;;;;;14.25;3.17;;;19.50;84.80;;;;;;5027136;28;20040;-63
2021/07/07 06:40:07;;;;;;;13.07;4.28;;;19.50;84.40;;;;;;5016979;28;20439;-65
2021/07/07 06:42:40;;;;;;;14.23;5.05;;;19.50;85.30;;;;;;5022238;28;20029;-63
2021/07/07 06:45:07;;;;;;;10.85;3.30;;;19.50;85.20;;;;;;5016434;28;20037;-63
2021/07/07 06:47:32;;;;;;;10.02;4.63;;;19.60;84.50;;;;;;5027431;28;20037;-62
2021/07/07 06:49:59;;;;;;;11.90;2.83;;;19.70;84.40;;;;;;5024713;28;20060;-62
2021/07/07 06:52:25;;;;;;;9.00;3.75;;;19.70;84.90;;;;;;5014591;28;20041;-63
2021/07/07 06:54:50;;;;;;;36.17;28.05;;;19.60;86.30;;;;;;5019346;28;20029;-62
2021/07/07 06:57:16;;;;;;;21.38;11.40;;;19.70;84.80;;;;;;5023738;28;20432;-63
2021/07/07 06:59:41;;;;;;;32.45;22.17;;;19.80;83.50;;;;;;5011979;28;20034;-62
2021/07/07 07:02:07;;;;;;;14.10;7.25;;;20.00;82.70;;;;;;5015726;28;20046;-63
2021/07/07 07:04:33;;;;;;;13.68;6.50;;;20.00;82.30;;;;;;5020974;28;20416;-62
2021/07/07 07:06:58;;;;;;;16.90;10.13;;;20.10;83.00;;;;;;5025745;28;20044;-62
2021/07/07 07:09:24;;;;;;;14.68;7.70;;;20.20;83.30;;;;;;5024020;28;20021;-61
2021/07/07 07:11:50;;;;;;;7.03;3.55;;;20.20;82.90;;;;;;5017693;28;20029;-62
2021/07/07 07:14:15;;;;;;;12.82;6.10;;;20.10;82.10;;;;;;5022648;28;20021;-61
2021/07/07 07:16:42;;;;;;;14.18;8.75;;;20.20;82.20;;;;;;5026792;28;20025;-62
2021/07/07 07:19:08;;;;;;;15.52;8.98;;;20.10;81.20;;;;;;5027029;28;20060;-62
2021/07/07 07:21:34;;;;;;;25.52;13.77;;;20.10;83.10;;;;;;5025084;28;20029;-62
2021/07/07 07:23:59;;;;;;;30.20;18.25;;;20.10;82.80;;;;;;5014676;28;20083;-62
2021/07/07 07:26:27;;;;;;;13.95;8.32;;;20.20;83.40;;;;;;5021595;28;20061;-61
2021/07/07 07:28:53;;;;;;;15.73;7.75;;;20.20;82.10;;;;;;5019764;28;20037;-62
2021/07/07 07:31:19;;;;;;;14.00;4.60;;;20.20;81.60;;;;;;5019146;28;20255;-61
2021/07/07 07:33:44;;;;;;;23.52;10.50;;;20.30;81.40;;;;;;5015807;28;20021;-61
2021/07/07 07:36:10;;;;;;;20.98;9.02;;;20.30;81.90;;;;;;5026171;28;20018;-61
2021/07/07 07:38:42;;;;;;;22.58;9.90;;;20.40;79.90;;;;;;5017319;28;20073;-61
2021/07/07 07:41:07;;;;;;;14.02;9.23;;;20.40;80.00;;;;;;5016777;28;20066;-61
2021/07/07 07:43:33;;;;;;;18.92;9.25;;;20.60;80.80;;;;;;5016557;28;20113;-61
2021/07/07 07:45:59;;;;;;;14.02;7.38;;;20.60;79.70;;;;;;5023177;28;20112;-61
2021/07/07 07:48:25;;;;;;;15.68;9.20;;;20.80;80.10;;;;;;5021552;28;20030;-62
2021/07/07 07:50:51;;;;;;;15.85;7.72;;;20.90;79.30;;;;;;5026109;28;20063;-62
2021/07/07 07:53:17;;;;;;;13.63;5.82;;;21.00;75.90;;;;;;5025253;28;20054;-62
2021/07/07 07:55:42;;;;;;;11.52;4.20;;;21.10;77.30;;;;;;5023249;28;20029;-62
2021/07/07 07:58:08;;;;;;;22.27;15.13;;;21.10;75.50;;;;;;5024222;28;20502;-62
2021/07/07 08:00:33;;;;;;;13.20;5.47;;;21.40;76.70;;;;;;5020685;28;20072;-62
2021/07/07 08:02:59;;;;;;;8.38;4.70;;;21.50;73.90;;;;;;5017968;28;20052;-60
2021/07/07 08:05:24;;;;;;;11.90;5.25;;;21.70;75.20;;;;;;5022689;28;20053;-61
2021/07/07 08:07:50;;;;;;;10.98;4.15;;;21.70;71.90;;;;;;5020910;28;20025;-60
2021/07/07 08:10:19;;;;;;;11.77;4.72;;;21.70;73.80;;;;;;5025171;28;20026;-62
2021/07/07 08:12:45;;;;;;;14.95;3.67;;;21.90;74.10;;;;;;5025030;28;20488;-62
2021/07/07 08:15:14;;;;;;;6.65;3.35;;;22.10;72.70;;;;;;5021336;28;20119;-61
2021/07/07 08:17:39;;;;;;;7.30;2.95;;;22.10;73.80;;;;;;5015698;28;20492;-61
2021/07/07 08:20:07;;;;;;;9.07;2.85;;;21.90;73.90;;;;;;5020185;28;20033;-61
2021/07/07 08:22:32;;;;;;;8.57;2.80;;;22.10;73.80;;;;;;5020152;28;20033;-60
2021/07/07 08:24:58;;;;;;;9.20;2.80;;;22.30;74.20;;;;;;5019486;28;20074;-61
2021/07/07 08:27:23;;;;;;;7.93;2.90;;;22.30;70.30;;;;;;5021983;28;20057;-61
2021/07/07 08:29:49;;;;;;;10.02;2.72;;;22.40;71.50;;;;;;5023849;28;20068;-61
2021/07/07 08:32:14;;;;;;;5.65;2.45;;;22.50;70.00;;;;;;5021828;28;20029;-61
2021/07/07 08:34:40;;;;;;;11.10;2.50;;;22.80;69.10;;;;;;5017895;28;20026;-61
2021/07/07 08:37:05;;;;;;;8.50;2.92;;;22.80;69.30;;;;;;5015446;28;20029;-61
2021/07/07 08:39:31;;;;;;;8.23;2.83;;;22.50;70.30;;;;;;5014465;28;20037;-61
2021/07/07 08:41:57;;;;;;;10.20;2.97;;;22.80;70.50;;;;;;5029867;28;20496;-61
2021/07/07 08:44:22;;;;;;;9.05;2.63;;;22.70;69.50;;;;;;5036081;28;20061;-61
2021/07/07 08:46:48;;;;;;;8.77;2.40;;;22.60;70.80;;;;;;5025601;28;20025;-61
2021/07/07 08:49:14;;;;;;;5.05;2.08;;;22.70;71.40;;;;;;5022233;28;20022;-61
2021/07/07 08:51:42;;;;;;;11.00;2.78;;;22.80;70.60;;;;;;5024316;28;20045;-61
2021/07/07 08:54:11;;;;;;;8.20;2.70;;;22.80;70.50;;;;;;5019245;28;20022;-61
2021/07/07 08:56:40;;;;;;;9.43;2.60;;;23.00;68.40;;;;;;5028754;28;20123;-61
2021/07/07 08:59:06;;;;;;;7.90;2.70;;;23.20;66.90;;;;;;5030150;28;20494;-61
2021/07/07 09:01:33;;;;;;;12.90;2.92;;;23.60;65.40;;;;;;5027869;28;20037;-60
2021/07/07 09:03:59;;;;;;;9.68;2.70;;;23.40;66.50;;;;;;5026782;28;20032;-61
2021/07/07 09:06:25;;;;;;;7.93;2.85;;;23.50;65.60;;;;;;5026747;28;20037;-61
2021/07/07 09:08:50;;;;;;;13.13;3.15;;;23.30;65.30;;;;;;5019311;28;20185;-61
2021/07/07 09:11:29;;;;;;;7.43;2.80;;;23.50;63.60;;;;;;5026952;28;20026;-61
2021/07/07 09:14:08;;;;;;;6.22;2.45;;;23.90;60.60;;;;;;5028529;28;20029;-60
2021/07/07 09:16:47;;;;;;;13.07;3.33;;;24.40;59.00;;;;;;5025009;28;20022;-61
2021/07/07 09:19:20;;;;;;;12.98;2.53;;;24.30;60.40;;;;;;5020336;28;20512;-61
2021/07/07 09:21:50;;;;;;;6.55;2.13;;;24.40;58.40;;;;;;5022956;28;20029;-61
2021/07/07 09:24:21;;;;;;;7.43;2.83;;;24.50;57.80;;;;;;5026540;28;20025;-61
2021/07/07 09:26:56;;;;;;;11.55;3.17;;;24.10;60.00;;;;;;5019819;28;20030;-61
2021/07/07 09:29:41;;;;;;;11.20;2.58;;;24.00;60.20;;;;;;5010506;28;20029;-60
2021/07/07 09:32:15;;;;;;;12.82;3.08;;;23.60;62.60;;;;;;5017251;28;20405;-61
2021/07/07 09:34:42;;;;;;;11.77;3.10;;;23.50;64.10;;;;;;5026038;28;20559;-61
2021/07/07 09:37:08;;;;;;;8.93;3.28;;;23.40;63.10;;;;;;5024441;28;20440;-61
2021/07/07 09:39:34;;;;;;;7.00;2.30;;;23.40;60.40;;;;;;5028702;28;20038;-61
2021/07/07 09:42:01;;;;;;;9.85;2.33;;;23.30;62.70;;;;;;5024545;28;20052;-60
2021/07/07 09:44:33;;;;;;;5.90;2.30;;;23.30;60.10;;;;;;5026968;28;20025;-61
2021/07/07 09:47:00;;;;;;;6.15;2.50;;;23.10;61.20;;;;;;5019591;28;20034;-60
2021/07/07 09:49:25;;;;;;;9.85;2.30;;;23.20;60.90;;;;;;5022578;28;20033;-61
2021/07/07 09:51:51;;;;;;;9.60;2.20;;;23.40;60.10;;;;;;5025798;28;20116;-62
2021/07/07 09:54:17;;;;;;;5.75;2.38;;;23.60;58.10;;;;;;5029638;28;20025;-61
2021/07/07 09:56:42;;;;;;;6.55;2.40;;;23.90;57.20;;;;;;5010922;28;20545;-61
2021/07/07 09:59:08;;;;;;;8.88;2.83;;;24.10;57.10;;;;;;5027437;28;20576;-62
2021/07/07 10:01:33;;;;;;;6.38;2.30;;;24.30;59.00;;;;;;5008247;28;20600;-61
2021/07/07 10:04:01;;;;;;;5.82;1.85;;;24.50;58.60;;;;;;5021028;28;20021;-61
2021/07/07 10:06:26;;;;;;;8.40;1.88;;;24.60;54.30;;;;;;5004384;28;20052;-61
2021/07/07 10:08:53;;;;;;;8.38;2.60;;;24.60;54.50;;;;;;5024483;28;20029;-61
2021/07/07 10:11:19;;;;;;;9.07;2.30;;;24.50;52.50;;;;;;5022197;28;20034;-61
2021/07/07 10:13:45;;;;;;;5.32;1.75;;;24.30;52.10;;;;;;4982331;28;20104;-61
2021/07/07 10:16:11;;;;;;;6.57;2.55;;;24.10;53.60;;;;;;5021812;28;20132;-61
2021/07/07 10:18:37;;;;;;;6.57;1.70;;;24.00;56.10;;;;;;5017681;28;20544;-61
2021/07/07 10:21:02;;;;;;;7.47;2.40;;;24.00;53.20;;;;;;5020856;28;20060;-62
2021/07/07 10:23:28;;;;;;;6.45;2.03;;;24.00;52.60;;;;;;5026947;28;20475;-61
2021/07/07 10:25:53;;;;;;;13.07;3.42;;;24.10;54.40;;;;;;5001032;28;20042;-61
2021/07/07 10:28:19;;;;;;;7.90;2.55;;;24.30;53.40;;;;;;5026880;28;20034;-61
2021/07/07 10:30:56;;;;;;;19.17;6.93;;;24.40;52.00;;;;;;5004176;28;20120;-61
2021/07/07 10:33:23;;;;;;;8.98;2.45;;;24.50;54.20;;;;;;5020780;28;20026;-61
2021/07/07 10:35:48;;;;;;;9.10;3.92;;;24.50;50.60;;;;;;5017307;28;20088;-61
2021/07/07 10:38:14;;;;;;;7.03;2.00;;;24.60;51.00;;;;;;5024440;28;20025;-59
2021/07/07 10:40:44;;;;;;;5.88;2.22;;;24.70;52.80;;;;;;5022241;28;20404;-61
2021/07/07 10:43:10;;;;;;;6.55;2.05;;;25.00;50.70;;;;;;5017517;28;20033;-61
2021/07/07 10:45:43;;;;;;;6.63;2.10;;;25.00;49.90;;;;;;5028372;28;20388;-61
2021/07/07 10:48:28;;;;;;;11.45;4.80;;;25.40;48.30;;;;;;5011208;28;20041;-61
2021/07/07 10:51:17;;;;;;;11.63;6.38;;;25.40;51.70;;;;;;5035056;28;20037;-61
2021/07/07 10:53:43;;;;;;;8.38;2.08;;;25.50;49.30;;;;;;5019296;28;20421;-60
2021/07/07 10:56:08;;;;;;;5.63;1.80;;;25.20;46.90;;;;;;5024529;28;20025;-63
2021/07/07 10:58:35;;;;;;;8.85;2.30;;;25.30;48.40;;;;;;5023588;28;20455;-63
2021/07/07 11:01:02;;;;;;;6.00;1.83;;;25.20;51.80;;;;;;5024648;28;20135;-63
2021/07/07 11:03:33;;;;;;;6.07;2.38;;;24.90;49.00;;;;;;5019901;28;20033;-63
2021/07/07 11:06:01;;;;;;;7.93;2.08;;;24.90;49.50;;;;;;5017144;28;20045;-63
2021/07/07 11:08:29;;;;;;;8.32;2.13;;;25.00;50.20;;;;;;5018592;28;20044;-62
2021/07/07 11:10:58;;;;;;;5.90;2.20;;;25.20;50.30;;;;;;5013744;28;20456;-63
2021/07/07 11:13:24;;;;;;;9.25;2.20;;;25.30;53.30;;;;;;5021547;28;20072;-63
2021/07/07 11:15:50;;;;;;;6.65;1.83;;;25.10;48.30;;;;;;5019171;28;20029;-63
2021/07/07 11:18:17;;;;;;;4.20;1.38;;;25.30;50.50;;;;;;5023157;28;20670;-64
2021/07/07 11:20:44;;;;;;;4.50;1.83;;;25.30;49.70;;;;;;5020157;28;20396;-64
2021/07/07 11:23:11;;;;;;;9.57;2.63;;;25.20;49.90;;;;;;5017314;28;20037;-64
2021/07/07 11:25:38;;;;;;;8.70;2.55;;;25.20;50.00;;;;;;5021995;28;20611;-64
2021/07/07 11:28:05;;;;;;;7.85;2.35;;;25.10;50.50;;;;;;5023091;28;20041;-64
2021/07/07 11:30:31;;;;;;;6.80;2.08;;;25.00;50.20;;;;;;5019467;28;20103;-64
2021/07/07 11:33:06;;;;;;;9.68;2.35;;;25.00;49.40;;;;;;5018798;28;20057;-62
2021/07/07 11:35:33;;;;;;;4.20;1.60;;;25.10;50.10;;;;;;5022973;28;20030;-62
2021/07/07 11:38:06;;;;;;;3.97;2.22;;;25.20;48.70;;;;;;5017673;28;20033;-62
2021/07/07 11:40:38;;;;;;;9.77;2.10;;;25.50;50.60;;;;;;5023242;28;20543;-62
2021/07/07 11:43:11;;;;;;;9.77;2.22;;;25.70;49.00;;;;;;5025769;28;20109;-62
2021/07/07 11:45:44;;;;;;;7.20;1.80;;;26.00;50.10;;;;;;5016133;28;20037;-62
2021/07/07 11:50:39;;;;;;;8.20;1.63;;;25.60;48.90;;;;;;5020708;28;20096;-62
2021/07/07 11:53:06;;;;;;;6.63;1.77;;;25.60;49.90;;;;;;5024580;28;20055;-62
2021/07/07 11:55:50;;;;;;;9.38;2.45;;;25.40;48.30;;;;;;5018382;28;20037;-63
2021/07/07 11:58:31;;;;;;;7.07;2.30;;;25.50;51.90;;;;;;5020481;28;20033;-62
2021/07/07 12:00:59;;;;;;;4.40;1.80;;;25.70;50.30;;;;;;5019463;28;20087;-62
2021/07/07 12:03:25;;;;;;;8.98;2.13;;;26.00;48.50;;;;;;5021146;28;20022;-62
2021/07/07 12:06:17;;;;;;;10.88;2.05;;;26.10;48.80;;;;;;5012895;28;20448;-62
2021/07/07 12:08:45;;;;;;;12.75;2.60;;;26.00;50.30;;;;;;5014644;28;20041;-62
2021/07/07 12:11:18;;;;;;;11.60;2.58;;;25.50;49.00;;;;;;5019630;28;20048;-63
2021/07/07 12:13:48;;;;;;;5.57;2.10;;;25.40;51.10;;;;;;5017618;28;20080;-62
2021/07/07 12:16:14;;;;;;;5.80;1.83;;;25.00;51.10;;;;;;5009353;28;20056;-62
2021/07/07 12:18:40;;;;;;;5.18;1.75;;;24.80;51.00;;;;;;5017159;28;20072;-62
2021/07/07 12:21:05;;;;;;;7.30;1.70;;;24.50;50.50;;;;;;5020984;28;20057;-63
2021/07/07 12:23:31;;;;;;;5.53;1.83;;;24.30;50.10;;;;;;5025915;28;20128;-62
2021/07/07 12:26:03;;;;;;;5.55;1.45;;;24.30;52.40;;;;;;5025424;28;20055;-63
2021/07/07 12:28:29;;;;;;;6.72;1.73;;;24.40;52.20;;;;;;5025755;28;20022;-63
2021/07/07 12:30:55;;;;;;;10.30;2.70;;;24.50;51.90;;;;;;5027929;28;20026;-62
2021/07/07 12:33:20;;;;;;;10.20;2.38;;;24.50;52.30;;;;;;5011771;28;20034;-62
2021/07/07 12:35:47;;;;;;;8.82;2.40;;;24.80;51.40;;;;;;5012550;28;20025;-62
2021/07/07 12:38:14;;;;;;;8.35;1.65;;;25.50;51.50;;;;;;5023534;28;20079;-62
2021/07/07 12:40:40;;;;;;;5.88;2.35;;;26.90;48.00;;;;;;4991666;28;20083;-62